Time;durP1;ratioP1;P1;durP2;ratioP2;P2;SDS_P1;SDS_P2;PMS_P1;PMS_P2;Temp;Humidity;BMP_temperature;BMP_pressure;BME280_temperature;BME280_humidity;BME280_pressure;Samples;Min_cycle;Max_cycle;Signal;HPM_P1;HPM_P2
2023/08/28 00:00:00;;;;;;;1999.90;999.90;;;12.90;99.90;;;;;;5077363;28;20488;-69
2023/08/28 00:02:25;;;;;;;1999.90;999.90;;;12.80;99.90;;;;;;5061501;28;20113;-69
2023/08/28 00:04:51;;;;;;;1999.90;999.90;;;12.90;99.90;;;;;;5056234;28;20202;-69
2023/08/28 00:07:17;;;;;;;1999.90;999.90;;;12.90;99.90;;;;;;5082363;28;20553;-69
2023/08/28 00:09:43;;;;;;;1999.90;999.90;;;12.90;99.90;;;;;;5039319;28;20476;-69
2023/08/28 00:12:08;;;;;;;1999.90;999.90;;;12.80;99.90;;;;;;5061917;28;20115;-69
2023/08/28 00:14:34;;;;;;;1999.90;999.90;;;12.80;99.90;;;;;;5046968;28;20049;-69
2023/08/28 00:17:00;;;;;;;1999.90;999.90;;;12.80;99.90;;;;;;5049116;28;20509;-69
2023/08/28 00:19:25;;;;;;;1999.90;999.90;;;12.70;99.90;;;;;;5048319;28;20045;-69
2023/08/28 00:21:51;;;;;;;1999.90;999.90;;;12.70;99.90;;;;;;5049234;28;20036;-69
2023/08/28 00:24:17;;;;;;;1999.90;999.90;;;12.60;99.90;;;;;;5051278;28;20049;-69
2023/08/28 00:26:43;;;;;;;1999.90;999.90;;;12.60;99.90;;;;;;5049946;28;20124;-69
2023/08/28 00:29:08;;;;;;;1999.90;999.90;;;12.50;99.90;;;;;;5040660;28;20120;-69
2023/08/28 00:31:35;;;;;;;1999.90;999.90;;;12.50;99.90;;;;;;5056650;28;20043;-69
2023/08/28 00:34:01;;;;;;;1999.90;999.90;;;12.50;99.90;;;;;;5068809;28;20036;-69
2023/08/28 00:36:29;;;;;;;1999.90;999.90;;;12.50;99.90;;;;;;5038170;28;20169;-69
2023/08/28 00:38:54;;;;;;;1999.90;999.90;;;12.50;99.90;;;;;;5050412;28;20037;-69
2023/08/28 00:41:20;;;;;;;1999.90;999.90;;;12.50;99.90;;;;;;5031995;28;20051;-69
2023/08/28 00:43:45;;;;;;;1999.90;999.90;;;12.50;99.90;;;;;;5049848;28;20508;-69
2023/08/28 00:46:11;;;;;;;1999.90;999.90;;;12.50;99.90;;;;;;5052111;28;20087;-69
2023/08/28 00:48:38;;;;;;;1999.90;999.90;;;12.50;99.90;;;;;;5049599;28;20045;-69
2023/08/28 00:51:04;;;;;;;1999.90;999.90;;;12.50;99.90;;;;;;5053044;28;20409;-69
2023/08/28 00:53:30;;;;;;;1999.90;999.90;;;12.50;99.90;;;;;;5052400;28;20040;-69
2023/08/28 00:55:56;;;;;;;1999.90;999.90;;;12.50;99.90;;;;;;5048347;28;20094;-69
2023/08/28 00:58:21;;;;;;;1999.90;999.90;;;12.50;99.90;;;;;;5060869;28;20066;-69
2023/08/28 01:00:47;;;;;;;1999.90;999.90;;;12.50;99.90;;;;;;5034302;28;20037;-69
2023/08/28 01:03:13;;;;;;;1999.90;999.90;;;12.50;99.90;;;;;;5057570;28;20047;-69
2023/08/28 01:05:56;;;;;;;1999.90;999.90;;;12.40;99.90;;;;;;5037303;28;20132;-69
2023/08/28 01:09:03;;;;;;;1999.90;999.90;;;12.40;99.90;;;;;;5055379;28;20052;-69
2023/08/28 01:11:34;;;;;;;1999.90;999.90;;;12.40;99.90;;;;;;5035084;28;20127;-69
2023/08/28 01:14:20;;;;;;;1999.90;999.90;;;12.40;99.90;;;;;;5053284;28;20072;-69
2023/08/28 01:16:49;;;;;;;1999.90;999.90;;;12.40;99.90;;;;;;5059837;28;20045;-69
2023/08/28 01:19:36;;;;;;;1999.90;999.90;;;12.40;99.90;;;;;;5054525;28;20045;-69
2023/08/28 01:22:16;;;;;;;1999.90;999.90;;;12.40;99.90;;;;;;5029492;28;20045;-69
2023/08/28 01:24:49;;;;;;;1999.90;999.90;;;12.30;99.90;;;;;;5051324;28;20053;-69
2023/08/28 01:27:16;;;;;;;1999.90;999.90;;;12.40;99.90;;;;;;5042691;28;20098;-69
2023/08/28 01:29:42;;;;;;;1999.90;999.90;;;12.40;99.90;;;;;;5034814;28;20412;-69
2023/08/28 01:32:07;;;;;;;1999.90;999.90;;;12.30;99.90;;;;;;5063675;28;20111;-69
2023/08/28 01:34:34;;;;;;;1999.90;999.90;;;12.30;99.90;;;;;;5042036;28;20114;-69
2023/08/28 01:37:12;;;;;;;1999.90;999.90;;;12.30;99.90;;;;;;5046684;28;20052;-69
2023/08/28 01:39:44;;;;;;;1999.90;999.90;;;12.30;99.90;;;;;;5057757;28;20048;-69
2023/08/28 01:42:10;;;;;;;1999.90;999.90;;;12.20;99.90;;;;;;5049200;28;20080;-69
2023/08/28 01:44:36;;;;;;;1999.90;999.90;;;12.20;99.90;;;;;;5054356;28;20049;-69
2023/08/28 01:47:04;;;;;;;1999.90;999.90;;;12.10;99.90;;;;;;5042347;28;20045;-69
2023/08/28 01:49:32;;;;;;;1999.90;999.90;;;12.10;99.90;;;;;;5046915;28;20081;-69
2023/08/28 01:51:57;;;;;;;1999.90;999.90;;;12.10;99.90;;;;;;5044544;28;20493;-69
2023/08/28 01:54:24;;;;;;;1999.90;999.90;;;12.00;99.90;;;;;;5031280;28;20045;-69
2023/08/28 01:56:50;;;;;;;1999.90;999.90;;;12.00;99.90;;;;;;5050126;28;20040;-69
2023/08/28 01:59:16;;;;;;;1999.90;999.90;;;12.00;99.90;;;;;;5044319;28;20095;-69
2023/08/28 02:01:41;;;;;;;1999.90;999.90;;;11.90;99.90;;;;;;5062238;28;20412;-69
2023/08/28 02:04:07;;;;;;;1999.90;999.90;;;11.80;99.90;;;;;;5047570;28;20080;-69
2023/08/28 02:06:33;;;;;;;1999.90;999.90;;;11.80;99.90;;;;;;5052299;28;20079;-69
2023/08/28 02:08:58;;;;;;;1999.90;999.90;;;11.80;99.90;;;;;;5047851;28;20067;-69
2023/08/28 02:11:24;;;;;;;1999.90;999.90;;;11.70;99.90;;;;;;5054890;28;20095;-69
2023/08/28 02:13:49;;;;;;;1999.90;999.90;;;11.70;99.90;;;;;;5055727;28;20037;-69
2023/08/28 02:16:17;;;;;;;1999.90;999.90;;;11.60;99.90;;;;;;5047944;28;20049;-69
2023/08/28 02:18:43;;;;;;;1999.90;999.90;;;11.60;99.90;;;;;;5035721;28;20460;-69
2023/08/28 02:21:08;;;;;;;1999.90;999.90;;;11.50;99.90;;;;;;5033120;28;20136;-69
2023/08/28 02:23:34;;;;;;;1999.90;999.90;;;11.50;99.90;;;;;;5048298;28;20041;-69
2023/08/28 02:26:00;;;;;;;1999.90;999.90;;;11.50;99.90;;;;;;5046178;28;20233;-69
2023/08/28 02:28:26;;;;;;;1999.90;999.90;;;11.50;99.90;;;;;;5031484;28;20148;-69
2023/08/28 02:30:51;;;;;;;1999.90;999.90;;;11.50;99.90;;;;;;5032250;28;20040;-69
2023/08/28 02:33:17;;;;;;;1999.90;999.90;;;11.40;99.90;;;;;;5053175;28;20033;-69
2023/08/28 02:35:44;;;;;;;1999.90;999.90;;;11.40;99.90;;;;;;5065262;28;20040;-69
2023/08/28 02:38:10;;;;;;;1999.90;999.90;;;11.30;99.90;;;;;;5037411;28;20581;-69
2023/08/28 02:40:37;;;;;;;1999.90;999.90;;;11.30;99.90;;;;;;5066488;28;20044;-69
2023/08/28 02:43:09;;;;;;;1999.90;999.90;;;11.20;99.90;;;;;;5060598;28;20045;-69
2023/08/28 02:45:43;;;;;;;1999.90;999.90;;;11.10;99.90;;;;;;5056110;28;20041;-69
2023/08/28 02:48:09;;;;;;;1999.90;999.90;;;11.10;99.90;;;;;;5041686;28;20073;-69
2023/08/28 02:50:35;;;;;;;1999.90;999.90;;;11.00;99.90;;;;;;5042811;28;20083;-69
2023/08/28 02:53:02;;;;;;;1999.90;999.90;;;11.00;99.90;;;;;;5059968;28;20037;-69
2023/08/28 02:55:30;;;;;;;1999.90;999.90;;;11.00;99.90;;;;;;5054599;28;20052;-69
2023/08/28 02:57:56;;;;;;;1999.90;999.90;;;11.00;99.90;;;;;;5044614;28;20049;-69
2023/08/28 03:00:22;;;;;;;1999.90;999.90;;;11.00;99.90;;;;;;5040556;28;20041;-69
2023/08/28 03:02:47;;;;;;;1999.90;999.90;;;11.00;99.90;;;;;;5050817;28;20072;-69
2023/08/28 03:05:13;;;;;;;1999.90;999.90;;;11.10;99.90;;;;;;5047105;28;20457;-69
2023/08/28 03:07:39;;;;;;;1999.90;999.90;;;11.10;99.90;;;;;;5053010;28;20040;-69
2023/08/28 03:10:05;;;;;;;1999.90;999.90;;;11.10;99.90;;;;;;5054667;28;20041;-69
2023/08/28 03:12:31;;;;;;;1999.90;999.90;;;11.20;99.90;;;;;;5058186;28;20485;-69
2023/08/28 03:14:57;;;;;;;1999.90;999.90;;;11.30;99.90;;;;;;5060658;28;20051;-69
2023/08/28 03:17:22;;;;;;;1999.90;999.90;;;11.30;99.90;;;;;;5042551;28;20032;-69
2023/08/28 03:19:48;;;;;;;1999.90;999.90;;;11.40;99.90;;;;;;5060943;28;20049;-69
2023/08/28 03:22:13;;;;;;;1999.90;999.90;;;11.50;99.90;;;;;;5046866;28;20389;-69
2023/08/28 03:24:39;;;;;;;1999.90;999.90;;;11.50;99.90;;;;;;5049557;28;20052;-69
2023/08/28 03:27:05;;;;;;;1999.90;999.90;;;11.60;99.90;;;;;;5033288;28;20055;-69
2023/08/28 03:29:30;;;;;;;1999.90;999.90;;;11.60;99.90;;;;;;5032479;28;20063;-69
2023/08/28 03:31:56;;;;;;;1999.90;999.90;;;11.70;99.90;;;;;;5044794;28;20124;-69
2023/08/28 03:34:22;;;;;;;1999.90;999.90;;;11.70;99.90;;;;;;5054355;28;20496;-69
2023/08/28 03:36:47;;;;;;;1999.90;999.90;;;11.80;99.90;;;;;;5062988;28;20044;-69
2023/08/28 03:39:13;;;;;;;1999.90;999.90;;;11.80;99.90;;;;;;5050610;28;20123;-69
2023/08/28 03:41:38;;;;;;;1999.90;999.90;;;11.90;99.90;;;;;;5056046;28;20056;-69
2023/08/28 03:44:04;;;;;;;1999.90;999.90;;;11.90;99.90;;;;;;5053896;28;20052;-69
2023/08/28 03:46:30;;;;;;;1999.90;999.90;;;11.90;99.90;;;;;;5062534;28;20504;-69
2023/08/28 03:48:55;;;;;;;1999.90;999.90;;;11.90;99.90;;;;;;5024963;28;20048;-69
2023/08/28 03:51:21;;;;;;;1999.90;999.90;;;11.90;99.90;;;;;;5050582;28;20041;-67
2023/08/28 03:53:46;;;;;;;1999.90;999.90;;;11.90;99.90;;;;;;5033517;28;20481;-67
2023/08/28 03:56:12;;;;;;;1999.90;999.90;;;11.90;99.90;;;;;;5047750;28;20132;-67
2023/08/28 03:58:37;;;;;;;1999.90;999.90;;;11.90;99.90;;;;;;5053935;28;20425;-67
2023/08/28 04:01:03;;;;;;;1999.90;999.90;;;11.90;99.90;;;;;;5056467;28;20043;-67
2023/08/28 04:03:29;;;;;;;1999.90;999.90;;;11.80;99.90;;;;;;5050787;28;20090;-67
2023/08/28 04:05:58;;;;;;;1999.90;999.90;;;11.80;99.90;;;;;;5058424;28;20060;-67
2023/08/28 04:08:23;;;;;;;1999.90;999.90;;;11.80;99.90;;;;;;5036630;28;20044;-67
2023/08/28 04:10:49;;;;;;;1999.90;999.90;;;11.80;99.90;;;;;;5038651;28;20032;-67
2023/08/28 04:13:15;;;;;;;1999.90;999.90;;;11.80;99.90;;;;;;5054725;28;20045;-67
2023/08/28 04:15:41;;;;;;;1999.90;999.90;;;11.80;99.90;;;;;;5054891;28;20102;-67
2023/08/28 04:18:07;;;;;;;1999.90;999.90;;;11.80;99.90;;;;;;5052433;28;20509;-67
2023/08/28 04:20:33;;;;;;;1999.90;999.90;;;11.80;99.90;;;;;;5032833;28;20048;-67
2023/08/28 04:22:59;;;;;;;1999.90;999.90;;;11.80;99.90;;;;;;5049739;28;20401;-67
2023/08/28 04:25:25;;;;;;;1999.90;999.90;;;11.80;99.90;;;;;;5051987;28;20045;-67
2023/08/28 04:27:51;;;;;;;1999.90;999.90;;;11.80;99.90;;;;;;5050900;28;20045;-67
2023/08/28 04:30:17;;;;;;;1999.90;999.90;;;11.80;99.90;;;;;;5049853;28;20063;-68
2023/08/28 04:32:42;;;;;;;1999.90;999.90;;;11.80;99.90;;;;;;5065398;28;20044;-67
2023/08/28 04:35:08;;;;;;;1999.90;999.90;;;11.70;99.90;;;;;;5048946;28;20192;-67
2023/08/28 04:37:34;;;;;;;1999.90;999.90;;;11.80;99.90;;;;;;5048355;28;20036;-67
2023/08/28 04:40:00;;;;;;;1999.90;999.90;;;11.70;99.90;;;;;;5064362;28;20041;-67
2023/08/28 04:42:26;;;;;;;1999.90;999.90;;;11.70;99.90;;;;;;5049229;28;20733;-67
2023/08/28 04:44:51;;;;;;;1999.90;999.90;;;11.70;99.90;;;;;;5047539;28;20041;-67
2023/08/28 04:47:17;;;;;;;1999.90;999.90;;;11.70;99.90;;;;;;5037148;28;20146;-67
2023/08/28 04:49:43;;;;;;;1999.90;999.90;;;11.60;99.90;;;;;;5064947;28;20037;-67
2023/08/28 04:52:08;;;;;;;1999.90;999.90;;;11.60;99.90;;;;;;5037000;28;20478;-68
2023/08/28 04:54:34;;;;;;;1999.90;999.90;;;11.50;99.90;;;;;;5076616;28;20137;-67
2023/08/28 04:57:00;;;;;;;1999.90;999.90;;;11.50;99.90;;;;;;5048238;28;20622;-67
2023/08/28 04:59:26;;;;;;;1999.90;999.90;;;11.50;99.90;;;;;;5029953;28;20080;-67
2023/08/28 05:01:52;;;;;;;1999.90;999.90;;;11.40;99.90;;;;;;5052811;28;20048;-67
2023/08/28 05:04:17;;;;;;;1999.90;999.90;;;11.40;99.90;;;;;;5045321;28;20429;-67
2023/08/28 05:06:43;;;;;;;1999.90;999.90;;;11.40;99.90;;;;;;5052779;28;20719;-67
2023/08/28 05:09:10;;;;;;;1999.90;999.90;;;11.40;99.90;;;;;;5049213;28;20040;-67
2023/08/28 05:11:36;;;;;;;1999.90;999.90;;;11.40;99.90;;;;;;5048182;28;20080;-67
2023/08/28 05:14:02;;;;;;;1999.90;999.90;;;11.30;99.90;;;;;;5063534;28;20076;-67
2023/08/28 05:16:27;;;;;;;1999.90;999.90;;;11.30;99.90;;;;;;5056305;28;20045;-67
2023/08/28 05:18:53;;;;;;;1999.90;999.90;;;11.30;99.90;;;;;;5048760;28;20051;-67
2023/08/28 05:21:18;;;;;;;1999.90;999.90;;;11.30;99.90;;;;;;5048576;28;20036;-67
2023/08/28 05:23:44;;;;;;;1999.90;999.90;;;11.40;99.90;;;;;;5050332;28;20103;-67
2023/08/28 05:26:10;;;;;;;1999.90;999.90;;;11.50;99.90;;;;;;5038063;28;20258;-67
2023/08/28 05:28:37;;;;;;;1999.90;999.90;;;11.50;99.90;;;;;;5034564;28;20812;-67
2023/08/28 05:31:03;;;;;;;1999.90;999.90;;;11.60;99.90;;;;;;5050543;28;20060;-68
2023/08/28 05:33:33;;;;;;;1999.90;999.90;;;11.80;99.90;;;;;;5056142;28;20040;-68
2023/08/28 05:35:59;;;;;;;1999.90;999.90;;;11.90;99.90;;;;;;5032676;28;20124;-67
2023/08/28 05:38:25;;;;;;;1999.90;999.90;;;12.00;99.90;;;;;;5034528;28;20120;-68
2023/08/28 05:40:50;;;;;;;1999.90;999.90;;;12.10;99.90;;;;;;5041387;28;20410;-68
2023/08/28 05:43:16;;;;;;;1999.90;999.90;;;12.10;99.90;;;;;;5043952;28;20047;-67
2023/08/28 05:45:41;;;;;;;1999.90;999.90;;;12.20;99.90;;;;;;5057193;28;20054;-67
2023/08/28 05:48:08;;;;;;;1999.90;999.90;;;12.20;99.90;;;;;;5048108;28;20056;-67
2023/08/28 05:50:33;;;;;;;1999.90;999.90;;;12.30;99.90;;;;;;5055921;28;20045;-68
2023/08/28 05:52:59;;;;;;;1999.90;999.90;;;12.40;99.90;;;;;;5051421;28;20371;-68
2023/08/28 05:55:25;;;;;;;1999.90;999.90;;;12.40;99.90;;;;;;5030326;28;20053;-67
2023/08/28 05:57:50;;;;;;;1999.90;999.90;;;12.50;99.90;;;;;;5053160;28;20424;-67
2023/08/28 06:00:16;;;;;;;1999.90;999.90;;;12.50;99.90;;;;;;5045413;28;20059;-67
2023/08/28 06:02:42;;;;;;;1999.90;999.90;;;12.60;99.90;;;;;;5043715;28;20049;-67
2023/08/28 06:05:08;;;;;;;1999.90;999.90;;;12.60;99.90;;;;;;5065346;28;20505;-67
2023/08/28 06:07:35;;;;;;;1999.90;999.90;;;12.60;99.90;;;;;;5050450;28;20378;-68
2023/08/28 06:10:00;;;;;;;1999.90;999.90;;;12.70;99.90;;;;;;5046789;28;20080;-67
2023/08/28 06:12:26;;;;;;;1999.90;999.90;;;12.80;99.90;;;;;;5041059;28;20064;-68
2023/08/28 06:14:52;;;;;;;1999.90;999.90;;;12.80;99.90;;;;;;5030455;28;20050;-67
2023/08/28 06:17:17;;;;;;;1999.90;999.90;;;13.00;99.90;;;;;;5051157;28;20049;-67
2023/08/28 06:19:43;;;;;;;1999.90;999.90;;;13.10;99.90;;;;;;5049709;28;20047;-68
2023/08/28 06:22:09;;;;;;;1999.90;999.90;;;13.20;99.90;;;;;;5055319;28;20052;-67
2023/08/28 06:24:34;;;;;;;1999.90;999.90;;;13.20;99.90;;;;;;5064098;28;20474;-68
2023/08/28 06:27:00;;;;;;;1999.90;999.90;;;13.30;99.90;;;;;;5044624;28;20596;-68
2023/08/28 06:29:26;;;;;;;1999.90;999.90;;;13.40;99.90;;;;;;5044497;28;20124;-67
2023/08/28 06:31:51;;;;;;;1999.90;999.90;;;13.50;99.90;;;;;;5043641;28;20036;-67
2023/08/28 06:34:17;;;;;;;1999.90;999.90;;;13.60;99.90;;;;;;5040979;28;20633;-67
2023/08/28 06:36:45;;;;;;;1999.90;999.90;;;13.60;99.90;;;;;;5061182;28;20047;-67
2023/08/28 06:39:11;;;;;;;1999.90;999.90;;;13.70;99.90;;;;;;5043945;28;20053;-68
2023/08/28 06:41:37;;;;;;;1999.90;999.90;;;13.80;99.90;;;;;;5038399;28;20051;-67
2023/08/28 06:44:04;;;;;;;1999.90;999.90;;;13.90;99.90;;;;;;5042849;28;20440;-68
2023/08/28 06:46:30;;;;;;;1999.90;999.90;;;14.00;99.90;;;;;;5028303;28;20127;-67
2023/08/28 06:48:56;;;;;;;1999.90;999.90;;;14.10;99.90;;;;;;5048094;28;20465;-68
2023/08/28 06:51:22;;;;;;;1999.90;999.90;;;14.20;99.90;;;;;;5047787;28;20124;-67
2023/08/28 06:53:49;;;;;;;1999.90;999.90;;;14.20;99.90;;;;;;5033014;28;20113;-68
2023/08/28 06:56:15;;;;;;;1999.90;999.90;;;14.30;99.90;;;;;;5047789;28;20049;-68
2023/08/28 06:58:40;;;;;;;1999.90;999.90;;;14.40;99.90;;;;;;5037279;28;20098;-68
2023/08/28 07:01:06;;;;;;;1999.90;999.90;;;14.50;99.90;;;;;;5062611;28;20045;-68
2023/08/28 07:03:32;;;;;;;1999.90;999.90;;;14.70;99.90;;;;;;5050029;28;20075;-67
2023/08/28 07:05:57;;;;;;;1999.90;999.90;;;14.80;99.90;;;;;;5056363;28;20049;-68
2023/08/28 07:08:23;;;;;;;1999.90;999.90;;;14.90;99.90;;;;;;5046102;28;20041;-68
2023/08/28 07:10:49;;;;;;;1999.90;999.90;;;14.90;99.90;;;;;;5048476;28;20033;-68
2023/08/28 07:13:14;;;;;;;1999.90;999.90;;;15.00;99.90;;;;;;5050478;28;20385;-68
2023/08/28 07:15:40;;;;;;;1999.90;999.90;;;15.00;99.90;;;;;;5044639;28;20528;-68
2023/08/28 07:18:06;;;;;;;1999.90;999.90;;;15.10;99.90;;;;;;5046151;28;20037;-68
2023/08/28 07:20:31;;;;;;;1999.90;999.90;;;15.20;99.90;;;;;;5050531;28;20044;-68
2023/08/28 07:22:57;;;;;;;1999.90;999.90;;;15.30;99.90;;;;;;5051561;28;20046;-68
2023/08/28 07:25:23;;;;;;;1999.90;999.90;;;15.40;99.90;;;;;;5047804;28;20040;-68
2023/08/28 07:27:52;;;;;;;1999.90;999.90;;;15.60;99.90;;;;;;5057475;28;20119;-68
2023/08/28 07:30:18;;;;;;;1999.90;999.90;;;15.60;99.90;;;;;;5052737;28;20128;-68
2023/08/28 07:32:44;;;;;;;1999.90;999.90;;;15.70;99.90;;;;;;5058626;28;20066;-68
2023/08/28 07:35:10;;;;;;;1999.90;999.90;;;15.70;99.90;;;;;;5039699;28;20049;-68
2023/08/28 07:37:36;;;;;;;1999.90;999.90;;;15.90;99.90;;;;;;5059375;28;20044;-68
2023/08/28 07:40:06;;;;;;;1999.90;999.90;;;15.90;99.90;;;;;;5051142;28;20045;-70
2023/08/28 07:42:35;;;;;;;1999.90;999.90;;;16.00;99.90;;;;;;5047194;28;20099;-70
2023/08/28 07:45:02;;;;;;;1999.90;999.90;;;16.20;99.90;;;;;;5051068;28;20041;-71
2023/08/28 07:47:28;;;;;;;1999.90;999.90;;;16.40;99.90;;;;;;5072914;28;20055;-71
2023/08/28 07:49:54;;;;;;;1999.90;999.90;;;16.40;99.90;;;;;;5037478;28;20135;-71
2023/08/28 07:52:20;;;;;;;1999.90;999.90;;;16.50;99.90;;;;;;5066971;28;20037;-71
2023/08/28 07:54:46;;;;;;;1999.90;999.90;;;16.60;99.90;;;;;;5050074;28;20037;-71
2023/08/28 07:57:12;;;;;;;1999.90;999.90;;;16.60;99.90;;;;;;5053468;28;20045;-71
2023/08/28 07:59:38;;;;;;;1999.90;999.90;;;16.60;99.90;;;;;;5051529;28;20045;-71
2023/08/28 08:02:04;;;;;;;1999.90;999.90;;;16.70;99.90;;;;;;5045945;28;20077;-71
2023/08/28 08:04:31;;;;;;;1999.90;999.90;;;16.70;99.90;;;;;;5038542;28;20143;-71
2023/08/28 08:06:57;;;;;;;1999.90;999.90;;;16.80;99.90;;;;;;5035731;28;20041;-71
2023/08/28 08:09:24;;;;;;;1999.90;999.90;;;16.90;99.90;;;;;;5064586;28;20048;-71
2023/08/28 08:11:49;;;;;;;1999.90;999.90;;;17.00;99.90;;;;;;5058983;28;20439;-71
2023/08/28 08:14:15;;;;;;;1999.90;999.90;;;17.10;99.90;;;;;;5044681;28;20041;-71
2023/08/28 08:16:40;;;;;;;1999.90;999.90;;;17.20;99.90;;;;;;5052233;28;20443;-71
2023/08/28 08:19:06;;;;;;;1999.90;999.90;;;17.20;99.90;;;;;;5049474;28;20045;-71
2023/08/28 08:21:32;;;;;;;1999.90;999.90;;;17.30;99.90;;;;;;5048008;28;20135;-71
2023/08/28 08:23:57;;;;;;;1999.90;999.90;;;17.40;99.90;;;;;;5054245;28;20123;-71
2023/08/28 08:26:23;;;;;;;1999.90;999.90;;;17.60;99.90;;;;;;5031986;28;20051;-71
2023/08/28 08:28:48;;;;;;;1999.90;999.90;;;17.90;99.90;;;;;;5054190;28;20044;-71
2023/08/28 08:31:14;;;;;;;516.42;487.40;;;18.10;99.90;;;;;;5030594;28;20842;-71
2023/08/28 08:33:40;;;;;;;1999.90;999.90;;;18.20;99.90;;;;;;5045559;28;20513;-71
2023/08/28 08:36:06;;;;;;;337.90;321.00;;;18.30;99.90;;;;;;5048621;28;20069;-70
2023/08/28 08:38:32;;;;;;;416.35;395.65;;;18.30;99.90;;;;;;5055988;28;20408;-71
2023/08/28 08:40:58;;;;;;;396.92;376.73;;;18.40;99.90;;;;;;5058254;28;20033;-71
2023/08/28 08:43:25;;;;;;;413.60;392.52;;;18.50;99.90;;;;;;5050327;28;20055;-71
2023/08/28 08:45:58;;;;;;;406.48;385.15;;;18.60;99.90;;;;;;5056333;28;20099;-71
2023/08/28 08:48:25;;;;;;;467.85;442.10;;;18.70;99.90;;;;;;5060950;28;20410;-71
2023/08/28 08:50:59;;;;;;;421.67;399.00;;;18.80;99.90;;;;;;5061539;28;20049;-71
2023/08/28 08:53:51;;;;;;;574.38;540.85;;;18.60;99.90;;;;;;5033397;28;20047;-70
2023/08/28 08:56:19;;;;;;;560.97;528.38;;;18.80;99.90;;;;;;5049354;28;20037;-71
2023/08/28 08:58:46;;;;;;;543.97;513.03;;;19.80;99.90;;;;;;5047812;28;20051;-71
2023/08/28 09:01:12;;;;;;;578.20;544.58;;;20.80;99.90;;;;;;5061490;28;20041;-71
2023/08/28 09:03:39;;;;;;;566.55;533.00;;;21.60;99.90;;;;;;5045647;28;20122;-71
2023/08/28 09:06:06;;;;;;;536.13;506.75;;;22.00;99.90;;;;;;5033066;28;20046;-71
2023/08/28 09:08:41;;;;;;;515.80;486.02;;;22.30;99.90;;;;;;5064950;28;20041;-71
2023/08/28 09:11:08;;;;;;;528.15;497.70;;;22.70;99.90;;;;;;5044630;28;20049;-71
2023/08/28 09:13:43;;;;;;;434.20;410.95;;;23.20;99.90;;;;;;5056434;28;20137;-71
2023/08/28 09:16:10;;;;;;;350.52;333.08;;;23.40;99.90;;;;;;5053435;28;20063;-71
2023/08/28 09:18:35;;;;;;;363.02;345.65;;;23.50;99.90;;;;;;5060762;28;20045;-71
2023/08/28 09:21:09;;;;;;;279.38;266.80;;;23.50;99.90;;;;;;5049066;28;20040;-71
2023/08/28 09:23:40;;;;;;;545.97;515.88;;;23.70;99.90;;;;;;5033815;28;20045;-71
2023/08/28 09:26:06;;;;;;;286.75;273.90;;;23.80;99.90;;;;;;5054178;28;20083;-71
2023/08/28 09:28:31;;;;;;;318.38;304.08;;;23.60;99.90;;;;;;5055646;28;20064;-71
2023/08/28 09:30:57;;;;;;;260.52;248.13;;;23.00;99.90;;;;;;5052657;28;20064;-70
2023/08/28 09:33:22;;;;;;;431.40;408.83;;;22.50;99.90;;;;;;5059679;28;20050;-71
2023/08/28 09:35:48;;;;;;;243.60;232.73;;;21.90;99.90;;;;;;5049860;28;20046;-71
2023/08/28 09:38:14;;;;;;;370.25;351.45;;;21.20;99.90;;;;;;5048318;28;20045;-71
2023/08/28 09:40:41;;;;;;;314.50;300.35;;;20.50;99.90;;;;;;5045047;28;21044;-71
2023/08/28 09:43:13;;;;;;;313.85;299.83;;;20.00;99.90;;;;;;5049231;28;20059;-71
2023/08/28 09:45:39;;;;;;;288.60;275.95;;;19.50;99.90;;;;;;5061270;28;20040;-71
2023/08/28 09:48:07;;;;;;;255.70;244.27;;;19.20;99.90;;;;;;5051322;28;20037;-71
2023/08/28 09:50:34;;;;;;;291.25;278.15;;;19.00;99.90;;;;;;5058973;28;20045;-71
2023/08/28 09:53:13;;;;;;;289.25;276.58;;;18.90;99.90;;;;;;5048337;28;20044;-71
2023/08/28 09:55:50;;;;;;;271.58;259.75;;;18.70;99.90;;;;;;5033535;28;20048;-71
2023/08/28 09:58:17;;;;;;;357.67;340.70;;;18.60;99.90;;;;;;5050850;28;20055;-71
2023/08/28 10:00:43;;;;;;;465.60;441.10;;;18.50;99.90;;;;;;5061279;28;20055;-70
2023/08/28 10:03:11;;;;;;;361.95;344.45;;;18.60;99.90;;;;;;5053260;28;20049;-71
2023/08/28 10:05:39;;;;;;;280.02;267.42;;;18.60;99.90;;;;;;5064297;28;20459;-71
2023/08/28 10:08:09;;;;;;;234.13;224.23;;;18.60;99.90;;;;;;5047371;28;20037;-71
2023/08/28 10:10:37;;;;;;;241.75;231.40;;;18.70;99.90;;;;;;5051732;28;20068;-71
2023/08/28 10:13:09;;;;;;;241.23;231.13;;;18.90;99.90;;;;;;5050202;28;20112;-71
2023/08/28 10:15:41;;;;;;;244.52;234.20;;;19.00;99.90;;;;;;5048520;28;20052;-71
2023/08/28 10:18:19;;;;;;;264.27;253.15;;;19.10;99.90;;;;;;5051987;28;20052;-71
2023/08/28 10:20:45;;;;;;;228.98;219.45;;;19.20;99.90;;;;;;5031243;28;20037;-71
2023/08/28 10:23:13;;;;;;;250.18;239.65;;;19.30;99.90;;;;;;5054673;28;20053;-71
2023/08/28 10:25:41;;;;;;;225.05;215.60;;;19.40;99.90;;;;;;5052686;28;20111;-71
2023/08/28 10:28:07;;;;;;;248.57;238.13;;;19.40;99.90;;;;;;5049903;28;20492;-71
2023/08/28 10:30:35;;;;;;;264.90;253.73;;;19.50;99.90;;;;;;5055138;28;20442;-71
2023/08/28 10:33:03;;;;;;;261.65;250.57;;;19.50;99.90;;;;;;5058920;28;20068;-71
2023/08/28 10:35:30;;;;;;;253.82;243.00;;;19.60;99.90;;;;;;5057117;28;20079;-71
2023/08/28 10:37:58;;;;;;;262.52;251.40;;;19.70;99.90;;;;;;5056630;28;20052;-71
2023/08/28 10:40:23;;;;;;;293.33;280.52;;;19.70;99.90;;;;;;5041713;28;20095;-70
2023/08/28 10:42:52;;;;;;;246.90;236.52;;;19.80;99.90;;;;;;5052042;28;20492;-70
2023/08/28 10:45:17;;;;;;;229.05;219.55;;;19.80;99.90;;;;;;5027224;28;20045;-70
2023/08/28 10:47:50;;;;;;;269.00;257.65;;;19.80;99.90;;;;;;5030676;28;20048;-70
2023/08/28 10:50:15;;;;;;;223.32;213.93;;;19.90;99.90;;;;;;5063460;28;20037;-70
2023/08/28 10:52:41;;;;;;;285.95;273.70;;;19.90;99.90;;;;;;5042109;28;20854;-70
2023/08/28 10:55:09;;;;;;;332.77;317.88;;;20.00;99.90;;;;;;5043340;28;20096;-70
2023/08/28 10:57:39;;;;;;;368.98;351.75;;;20.10;99.90;;;;;;5044815;28;20037;-71
2023/08/28 11:00:20;;;;;;;334.50;318.98;;;20.40;99.90;;;;;;5039842;28;20492;-70
2023/08/28 11:03:14;;;;;;;240.32;230.15;;;20.60;99.90;;;;;;5055597;28;20040;-70
2023/08/28 11:05:41;;;;;;;336.10;320.83;;;20.50;99.90;;;;;;5049761;28;20158;-70
2023/08/28 11:08:08;;;;;;;380.40;362.60;;;20.40;99.90;;;;;;5045532;28;20056;-70
2023/08/28 11:10:38;;;;;;;394.15;375.70;;;20.30;99.90;;;;;;5042877;28;20500;-70
2023/08/28 11:13:05;;;;;;;370.15;352.95;;;20.20;99.90;;;;;;5031139;28;20044;-70
2023/08/28 11:16:01;;;;;;;337.17;320.90;;;20.10;99.90;;;;;;5030557;28;20119;-71
2023/08/28 11:18:30;;;;;;;390.27;371.55;;;20.10;99.90;;;;;;5058034;28;20041;-71
2023/08/28 11:20:59;;;;;;;430.25;409.50;;;20.00;99.90;;;;;;5054716;28;20048;-71
2023/08/28 11:23:35;;;;;;;419.83;399.42;;;19.90;99.90;;;;;;5024527;28;20400;-71
2023/08/28 11:26:22;;;;;;;382.70;364.20;;;19.80;99.90;;;;;;5061658;28;20564;-70
2023/08/28 11:28:49;;;;;;;330.63;315.67;;;19.80;99.90;;;;;;5034091;28;20049;-70
2023/08/28 11:31:16;;;;;;;382.58;364.45;;;19.90;99.90;;;;;;5039045;28;20041;-71
2023/08/28 11:33:43;;;;;;;384.40;365.92;;;19.90;99.90;;;;;;5043864;28;20036;-70
2023/08/28 11:36:11;;;;;;;316.55;302.00;;;19.80;99.90;;;;;;5063127;28;20044;-70
2023/08/28 11:38:41;;;;;;;333.52;318.10;;;19.80;99.90;;;;;;5043487;28;20516;-70
2023/08/28 11:41:09;;;;;;;316.30;302.05;;;19.90;99.90;;;;;;5040904;28;20413;-70
2023/08/28 11:43:37;;;;;;;296.83;283.77;;;20.00;99.90;;;;;;5046514;28;20055;-70
2023/08/28 11:46:03;;;;;;;321.05;306.50;;;20.10;99.90;;;;;;5051831;28;20124;-70
2023/08/28 11:48:36;;;;;;;350.23;333.95;;;20.10;99.90;;;;;;5046736;28;20102;-70
2023/08/28 11:51:04;;;;;;;346.52;330.13;;;20.30;99.90;;;;;;5043470;28;20063;-69
2023/08/28 11:53:34;;;;;;;236.70;226.60;;;20.60;99.90;;;;;;5043521;28;20438;-70
2023/08/28 11:56:03;;;;;;;297.23;283.58;;;21.20;99.90;;;;;;5034494;28;20060;-70
2023/08/28 11:58:30;;;;;;;243.45;232.65;;;21.90;99.90;;;;;;5043084;28;20056;-70
2023/08/28 12:00:55;;;;;;;270.98;258.77;;;22.50;99.90;;;;;;5062768;28;20151;-70